Relevés horaires Bierset (Belgique)


Relevés horaires à Bierset - Mardi 16 Oct. 2018
Heure UTC1 Température [°C] Vent [km/h] Hum. [%] Pres.4 [hPa] Visi. [Km] Nébu. [octa] Préc.5 [mm] Cond.
2m. Res. Ros. Dir.2 Vit. Moy. Raf.3
23:00 15.1 15.1 9.1 SE 7.4 9.3 16.7 67 1019(-0.5/3h) 30 2/8 -- --
22:00 16.3 16.3 8.6 SSE 7.4 7.4 16.7 60 1019.1(0.0/3h) 30 2/8 -- --
21:00 17.1 17.1 8.5 SE 7.4 7.4 14.8 57 1019.3(0.5/3h) 30 2/8 -- --
20:00 18.0 18.0 7.2 SSE 5.6 5.6 14.8 49 1019.2(0.9/3h) 30 3/8 -- --
19:00 19.8 19.8 6.7 S 5.6 5.6 14.8 42 1018.9(0.9/3h) 30 6/8 -- --
18:00 20.4 20.4 7.1 S 3.7 5.6 14.8 42 1018.6(0.7/3h) 30 6/8 0/12h
--
17:00 21.6 21.6 7.6 S 1.9 3.7 5.6 40 1018.1(-0.1/3h) 25 5/8 -- --
16:00 23.0 23.0 8.1 SSE 3.7 5.6 9.3 38 1017.7(-0.2/3h) 25 5/8 -- --
15:00 23.6 23.6 8.4 SSE 5.6 5.6 9.3 38 1017.6(-0.4/3h) 25 5/8 -- --
14:00 23.9 23.9 8.1 SSE 3.7 5.6 7.4 36 1017.8(-0.6/3h) 25 5/8 -- --
13:00 23.1 23.1 8.5 SSE 3.7 5.6 7.4 39 1017.9(-0.7/3h) 25 5/8 -- --
12:00 23.5 23.5 9.1 NNO 1.9 5.6 16.7 40 1018.1(-0.3/3h) 25 5/8 0/6h
--
11:00 21.4 21.4 10.5 SE 1.9 3.7 16.7 50 1018.5(0.1/3h) 20 3/8 -- --
10:00 19.0 19.0 10.5 S 3.7 5.6 7.4 58 1018.8(0.4/3h) 20 3/8 -- --
09:00 16.1 16.1 9.6 S 3.7 5.6 14.8 65 1018.9(0.8/3h) 20 3/8 -- --
08:00 12.8 12.8 8.9 SSE 5.6 5.6 7.4 77 1019.1(1.2/3h) 20 3/8 -- --
07:00 11.9 11.9 8.6 SO 1.9 1.9 7.4 80 1019(1.2/3h) 20 3/8 -- --
06:00 11.4 11.4 8.3 NNO 1.9 9.3 18.5 81 1018.6(0.9/3h) 20 4/8 0/12h
--
05:00 12.1 11.6 8.3 SE 7.4 9.3 11.1 78 1017.9(0.3/3h) 20 4/8 -- --
04:00 12.0 12.0 8.6 SSE 3.7 3.7 13.0 80 1017.8(0.6/3h) 20 5/8 -- --
03:00 12.8 12.8 9.1 SSE 3.7 3.7 13.0 78 1017.5(0.8/3h) 20 5/8 -- --
02:00 13.0 13.0 9.3 SSE 3.7 3.7 13.0 78 1017.5(1.2/3h) 20 1/8 -- --
01:00 13.6 13.6 9.5 S 1.9 1.9 11.1 76 1017.1(1.0/3h) 20 1/8 -- --
00:00 14.8 14.8 9.6 NNO 0.0 9.3 20.4 71 1016.6(0.7/3h) 20 1/8 0/6h
0/24h
--

1 Coordinated Universal Time. Actuellement il est 07:00 locale et 05:00 UTC.

2 Le vent souffle depuis la direction indiquée vers la direction oposée.

3 Les rafales max. sont disponible 40 min après l'heure du relevé.

4 Pour les stations d'altitude (plus de 600m) le géopotentiel du niveau le plus proche de la pression obligatoire est indiqué.

5 Les stations disposant d'un diffuseur peuvent indiquer "trace". Cela signifie que des précipitations ont touchés le sol mais que la quantité est inférieure à 0.1 mm.

Récapitulatif de la journée
Température [°C] Vent [km/h] Ensoleillement4 [h] Precipitations totale5 [mm] Pression [Hpa]
Min1 Max.2 Moy.3 Max. Min Max.
11.0 24.2 5.7 20.4 0 h 0 min 0 1016.6 1019.3

1 Température minimale relevée entre 18:00 UTC la veille et 18:00 UTC le jour donné.

2 Température maximale relevée entre 06:00 UTC le jour donné et 06:00 UTC le lendemain.

3 Vent moyen de la journée basé sur les relevés horaires.

4 Ensoleillement en heures relevé entre 06:00 UTC la veille et 06:00 UTC le jour donné.

5 Précipitations totales tombées entre 06:00 UTC la jour donné et 06:00 UTC le lendemain.

Graphiques horaires